createdAt,value
2023-05-08T00:02:16.826Z,5.78
2023-05-08T00:04:43.543Z,5.70
2023-05-08T00:07:11.011Z,5.80
2023-05-08T00:09:37.933Z,5.80
2023-05-08T00:12:04.981Z,5.53
2023-05-08T00:14:32.729Z,5.78
2023-05-08T00:16:59.474Z,5.05
2023-05-08T00:19:26.127Z,5.75
2023-05-08T00:21:56.843Z,6.07
2023-05-08T00:24:23.577Z,5.93
2023-05-08T00:26:50.372Z,5.85
2023-05-08T00:29:16.997Z,5.65
2023-05-08T00:31:43.648Z,6.03
2023-05-08T00:34:10.316Z,6.35
2023-05-08T00:36:36.922Z,6.07
2023-05-08T00:39:05.833Z,5.45
2023-05-08T00:41:32.443Z,5.82
2023-05-08T00:43:59.225Z,6.00
2023-05-08T00:46:26.150Z,5.60
2023-05-08T00:48:53.536Z,5.25
2023-05-08T00:51:20.843Z,6.03
2023-05-08T00:53:47.641Z,5.15
2023-05-08T00:56:17.001Z,5.78
2023-05-08T00:58:45.713Z,5.55
2023-05-08T01:01:12.577Z,5.80
2023-05-08T01:03:39.756Z,5.63
2023-05-08T01:06:07.130Z,5.93
2023-05-08T01:08:34.052Z,5.28
2023-05-08T01:11:25.071Z,6.55
2023-05-08T01:14:11.310Z,6.32
2023-05-08T01:16:43.752Z,6.22
2023-05-08T01:19:47.215Z,5.80
2023-05-08T01:22:51.030Z,5.90
2023-05-08T01:25:49.290Z,5.90
2023-05-08T01:28:28.923Z,6.30
2023-05-08T01:31:05.178Z,6.03
2023-05-08T01:34:10.627Z,5.78
2023-05-08T01:37:04.411Z,6.05
2023-05-08T01:39:57.476Z,6.60
2023-05-08T01:42:27.194Z,6.57
2023-05-08T01:45:17.326Z,6.32
2023-05-08T01:47:50.099Z,7.05
2023-05-08T01:50:25.809Z,6.90
2023-05-08T01:53:03.453Z,7.20
2023-05-08T01:55:34.695Z,7.32
2023-05-08T01:58:04.405Z,6.70
2023-05-08T02:00:31.860Z,6.85
2023-05-08T02:02:59.354Z,7.00
2023-05-08T02:05:27.742Z,7.07
2023-05-08T02:07:55.472Z,6.97
2023-05-08T02:10:24.943Z,6.97
2023-05-08T02:12:53.808Z,7.07
2023-05-08T02:15:22.063Z,7.22
2023-05-08T02:17:50.840Z,7.50
2023-05-08T02:20:20.228Z,7.22
2023-05-08T02:22:50.265Z,7.28
2023-05-08T02:25:17.896Z,6.68
2023-05-08T02:27:47.564Z,8.07
2023-05-08T02:30:16.356Z,7.43
2023-05-08T02:32:45.176Z,7.63
2023-05-08T02:35:20.163Z,7.18
2023-05-08T02:37:52.820Z,7.28
2023-05-08T02:40:22.375Z,7.38
2023-05-08T02:42:49.749Z,8.20
2023-05-08T02:45:16.791Z,7.65
2023-05-08T02:48:07.879Z,8.05
2023-05-08T02:50:51.748Z,7.22
2023-05-08T02:53:25.736Z,7.82
2023-05-08T02:55:58.162Z,7.68
2023-05-08T02:58:49.384Z,7.65
2023-05-08T03:01:30.216Z,7.70
2023-05-08T03:04:04.532Z,7.90
2023-05-08T03:06:38.882Z,7.57
2023-05-08T03:09:07.067Z,8.15
2023-05-08T03:11:40.565Z,7.85
2023-05-08T03:14:11.654Z,7.70
2023-05-08T03:16:41.619Z,7.90
2023-05-08T03:19:18.655Z,7.80
2023-05-08T03:21:46.883Z,7.57
2023-05-08T03:24:17.634Z,8.18
2023-05-08T03:26:46.112Z,7.93
2023-05-08T03:29:14.718Z,7.88
2023-05-08T03:31:43.905Z,8.30
2023-05-08T03:34:13.301Z,8.43
2023-05-08T03:36:40.755Z,8.63
2023-05-08T03:39:07.816Z,8.43
2023-05-08T03:41:34.754Z,8.52
2023-05-08T03:44:03.580Z,8.20
2023-05-08T03:46:32.127Z,8.55
2023-05-08T03:49:00.495Z,8.60
2023-05-08T03:51:28.517Z,9.07
2023-05-08T03:53:55.226Z,9.13
2023-05-08T03:56:23.077Z,8.45
2023-05-08T03:59:00.712Z,8.73
2023-05-08T04:01:46.727Z,8.93
2023-05-08T04:04:33.847Z,9.10
2023-05-08T04:07:10.664Z,9.13
2023-05-08T04:09:54.036Z,8.52
2023-05-08T04:12:32.027Z,8.68
2023-05-08T04:15:09.176Z,8.00
2023-05-08T04:17:39.153Z,8.40
2023-05-08T04:20:12.310Z,8.65
2023-05-08T04:22:41.061Z,8.23
2023-05-08T04:25:10.653Z,9.48
2023-05-08T04:27:38.609Z,8.48
2023-05-08T04:30:06.111Z,8.73
2023-05-08T04:32:35.400Z,8.88
2023-05-08T04:35:03.587Z,8.45
2023-05-08T04:37:34.031Z,8.40
2023-05-08T04:40:01.367Z,8.18
2023-05-08T04:42:28.314Z,7.57
2023-05-08T04:44:55.254Z,8.02
2023-05-08T04:47:22.225Z,7.70
2023-05-08T04:49:49.020Z,7.15
2023-05-08T04:52:16.022Z,7.28
2023-05-08T04:54:42.785Z,7.43
2023-05-08T04:57:09.836Z,7.65
2023-05-08T04:59:36.499Z,7.32
2023-05-08T05:02:03.734Z,7.70
2023-05-08T05:04:30.417Z,7.18
2023-05-08T05:06:57.593Z,7.00
2023-05-08T05:09:25.494Z,7.72
2023-05-08T05:11:52.441Z,6.90
2023-05-08T05:14:19.327Z,6.30
2023-05-08T05:16:46.531Z,6.97
2023-05-08T05:19:13.886Z,6.60
2023-05-08T05:21:41.166Z,7.32
2023-05-08T05:24:08.087Z,6.80
2023-05-08T05:26:36.391Z,7.13
2023-05-08T05:29:03.609Z,6.88
2023-05-08T05:31:30.923Z,6.88
2023-05-08T05:33:57.894Z,6.85
2023-05-08T05:36:24.540Z,6.15
2023-05-08T05:38:51.457Z,6.97
2023-05-08T05:41:18.189Z,6.25
2023-05-08T05:43:44.764Z,6.43
2023-05-08T05:46:11.550Z,5.80
2023-05-08T05:48:38.173Z,5.97
2023-05-08T05:51:04.829Z,5.90
2023-05-08T05:53:34.211Z,5.85
2023-05-08T05:56:00.909Z,6.03
2023-05-08T05:58:28.712Z,6.07
2023-05-08T06:00:58.294Z,6.05
2023-05-08T06:03:33.457Z,5.35
2023-05-08T06:06:00.159Z,5.57
2023-05-08T06:08:36.213Z,4.90
2023-05-08T06:11:07.031Z,5.18
2023-05-08T06:13:33.829Z,4.07
2023-05-08T06:16:08.554Z,4.97
2023-05-08T06:18:35.249Z,4.50
2023-05-08T06:21:02.072Z,4.38
2023-05-08T06:23:28.666Z,3.85
2023-05-08T06:25:55.488Z,4.32
2023-05-08T06:28:28.521Z,4.55
2023-05-08T06:30:58.313Z,4.32
2023-05-08T06:33:26.779Z,4.07
2023-05-08T06:35:56.648Z,4.28
2023-05-08T06:38:26.122Z,3.60
2023-05-08T06:40:55.845Z,4.13
2023-05-08T06:43:22.642Z,4.13
2023-05-08T06:45:59.258Z,3.90
2023-05-08T06:48:36.241Z,4.03
2023-05-08T06:51:03.773Z,3.60
2023-05-08T06:53:37.008Z,3.00
2023-05-08T06:56:03.708Z,3.30
2023-05-08T06:58:32.216Z,3.58
2023-05-08T07:01:04.688Z,3.47
2023-05-08T07:03:31.829Z,3.20
2023-05-08T07:05:58.676Z,3.60
2023-05-08T07:08:44.508Z,3.20
2023-05-08T07:11:11.191Z,2.85
2023-05-08T07:13:50.244Z,2.85
2023-05-08T07:16:17.377Z,2.90
2023-05-08T07:18:44.351Z,2.83
2023-05-08T07:21:11.430Z,2.58
2023-05-08T07:23:38.036Z,2.80
2023-05-08T07:26:25.520Z,2.75
2023-05-08T07:28:59.878Z,2.78
2023-05-08T07:31:27.215Z,2.47
2023-05-08T07:33:54.052Z,2.22
2023-05-08T07:36:20.760Z,2.40
2023-05-08T07:38:47.709Z,3.10
2023-05-08T07:41:17.585Z,2.35
2023-05-08T07:43:45.580Z,2.95
2023-05-08T07:46:19.437Z,3.28
2023-05-08T07:48:46.132Z,2.65
2023-05-08T07:51:23.187Z,3.15
2023-05-08T07:53:51.158Z,2.50
2023-05-08T07:56:18.050Z,2.72
2023-05-08T07:58:46.058Z,2.90
2023-05-08T08:01:15.231Z,2.70
2023-05-08T08:04:00.229Z,2.65
2023-05-08T08:06:29.692Z,2.63
2023-05-08T08:09:04.384Z,2.47
2023-05-08T08:11:32.890Z,2.20
2023-05-08T08:13:59.820Z,2.75
2023-05-08T08:16:27.055Z,2.30
2023-05-08T08:18:59.896Z,2.35
2023-05-08T08:21:29.924Z,2.28
2023-05-08T08:23:56.916Z,2.10
2023-05-08T08:26:23.639Z,2.17
2023-05-08T08:28:50.622Z,2.92
2023-05-08T08:31:17.615Z,2.22
2023-05-08T08:33:44.555Z,2.80
2023-05-08T08:36:15.564Z,2.40
2023-05-08T08:38:42.541Z,2.20
2023-05-08T08:41:09.224Z,2.58
2023-05-08T08:43:36.012Z,2.60
2023-05-08T08:46:12.317Z,2.17
2023-05-08T08:48:45.038Z,2.33
2023-05-08T08:51:18.568Z,2.40
2023-05-08T08:53:48.378Z,2.47
2023-05-08T08:56:16.844Z,2.30
2023-05-08T08:58:56.985Z,2.35
2023-05-08T09:01:24.882Z,2.28
2023-05-08T09:03:51.615Z,2.58
2023-05-08T09:06:19.790Z,2.38
2023-05-08T09:08:47.383Z,2.70
2023-05-08T09:11:14.233Z,2.40
2023-05-08T09:13:40.884Z,2.22
2023-05-08T09:16:07.773Z,2.08
2023-05-08T09:18:34.515Z,2.47
2023-05-08T09:21:01.897Z,2.40
2023-05-08T09:23:28.834Z,2.70
2023-05-08T09:25:55.462Z,2.30
2023-05-08T09:28:24.231Z,2.30
2023-05-08T09:30:55.118Z,2.38
2023-05-08T09:33:25.596Z,2.10
2023-05-08T09:35:52.931Z,2.70
2023-05-08T09:38:40.005Z,2.72
2023-05-08T09:41:06.675Z,2.55
2023-05-08T09:43:33.244Z,2.08
2023-05-08T09:46:19.933Z,2.40
2023-05-08T09:48:46.625Z,2.03
2023-05-08T09:51:13.503Z,2.05
2023-05-08T09:53:42.432Z,2.10
2023-05-08T09:56:09.753Z,2.22
2023-05-08T09:58:43.882Z,2.38
2023-05-08T10:01:46.567Z,2.65
2023-05-08T10:04:13.198Z,1.98
2023-05-08T10:06:39.882Z,2.65
2023-05-08T10:09:08.160Z,2.63
2023-05-08T10:11:34.797Z,1.98
2023-05-08T10:14:01.360Z,2.15
2023-05-08T10:16:29.866Z,2.28
2023-05-08T10:19:02.331Z,3.25
2023-05-08T10:21:30.182Z,2.22
2023-05-08T10:24:01.146Z,2.30
2023-05-08T10:26:31.511Z,2.75
2023-05-08T10:29:21.223Z,2.30
2023-05-08T10:31:54.345Z,3.50
2023-05-08T10:34:22.794Z,2.45
2023-05-08T10:36:54.178Z,2.20
2023-05-08T10:39:21.810Z,2.10
2023-05-08T10:41:49.537Z,1.95
2023-05-08T10:44:16.591Z,2.15
2023-05-08T10:46:46.865Z,2.30
2023-05-08T10:49:34.292Z,1.90
2023-05-08T10:52:12.970Z,2.20
2023-05-08T10:55:04.476Z,1.88
2023-05-08T10:57:32.156Z,2.15
2023-05-08T10:59:58.816Z,2.00
2023-05-08T11:02:31.575Z,1.80
2023-05-08T11:05:17.741Z,2.03
2023-05-08T11:08:01.277Z,2.55
2023-05-08T11:10:37.277Z,1.98
2023-05-08T11:13:05.157Z,2.22
2023-05-08T11:15:39.862Z,1.60
2023-05-08T11:18:09.868Z,1.83
2023-05-08T11:20:41.256Z,1.55
2023-05-08T11:23:28.084Z,1.80
2023-05-08T11:26:02.307Z,1.80
2023-05-08T11:28:33.303Z,1.77
2023-05-08T11:31:05.442Z,2.03
2023-05-08T11:33:41.041Z,1.67
2023-05-08T11:36:24.642Z,1.95
2023-05-08T11:39:16.029Z,2.08
2023-05-08T11:41:45.578Z,2.10
2023-05-08T11:44:23.722Z,2.08
2023-05-08T11:46:55.470Z,2.10
2023-05-08T11:51:58.882Z,1.73
2023-05-08T11:54:29.396Z,2.00
2023-05-08T11:56:56.269Z,2.00
2023-05-08T11:59:23.274Z,2.20
2023-05-08T12:06:50.876Z,2.17
2023-05-08T12:09:18.714Z,1.92
2023-05-08T12:11:45.643Z,1.60
2023-05-08T12:14:15.934Z,2.00
2023-05-08T12:16:46.709Z,1.50
2023-05-08T12:19:14.076Z,1.77
2023-05-08T12:21:48.794Z,2.00
2023-05-08T12:24:22.737Z,1.90
2023-05-08T12:26:50.487Z,1.85
2023-05-08T12:29:19.690Z,1.40
2023-05-08T12:31:47.505Z,1.60
2023-05-08T12:34:14.269Z,1.77
2023-05-08T12:36:40.834Z,1.85
2023-05-08T12:39:15.618Z,2.03
2023-05-08T12:41:49.929Z,1.88
2023-05-08T12:44:23.895Z,1.95
2023-05-08T12:46:54.947Z,1.85
2023-05-08T12:49:29.982Z,2.00
2023-05-08T12:52:04.715Z,1.90
2023-05-08T12:54:38.740Z,1.85
2023-05-08T12:57:16.726Z,2.05
2023-05-08T12:59:44.653Z,1.73
2023-05-08T13:02:16.239Z,1.70
2023-05-08T13:04:43.604Z,1.65
2023-05-08T13:07:10.549Z,2.10
2023-05-08T13:09:39.505Z,1.55
2023-05-08T13:12:09.528Z,1.48
2023-05-08T13:14:36.169Z,1.75
2023-05-08T13:17:02.780Z,1.98
2023-05-08T13:19:29.398Z,1.65
2023-05-08T13:21:55.985Z,1.63
2023-05-08T13:24:22.577Z,1.70
2023-05-08T13:26:49.806Z,1.75
2023-05-08T13:29:17.683Z,1.67
2023-05-08T13:31:47.067Z,2.03
2023-05-08T13:34:23.372Z,1.52
2023-05-08T13:36:50.007Z,2.60
2023-05-08T13:39:27.115Z,1.85
2023-05-08T13:41:53.961Z,1.80
2023-05-08T13:44:23.816Z,2.10
2023-05-08T13:46:59.698Z,1.95
2023-05-08T13:49:31.467Z,1.92
2023-05-08T13:54:25.253Z,1.85
2023-05-08T13:56:55.614Z,1.80
2023-05-08T13:59:32.589Z,2.97
2023-05-08T14:02:04.683Z,1.88
2023-05-08T14:04:38.654Z,1.92
2023-05-08T14:07:05.591Z,1.50
2023-05-08T14:09:33.456Z,1.80
2023-05-08T14:12:03.243Z,1.92
2023-05-08T14:14:34.368Z,2.25
2023-05-08T14:17:04.513Z,1.83
2023-05-08T14:19:32.034Z,1.80
2023-05-08T14:22:01.263Z,1.92
2023-05-08T14:24:34.065Z,1.70
2023-05-08T14:27:11.381Z,1.80
2023-05-08T14:29:49.253Z,1.60
2023-05-08T14:32:17.478Z,1.95
2023-05-08T14:34:54.870Z,2.00
2023-05-08T14:37:24.792Z,1.80
2023-05-08T14:39:58.206Z,1.80
2023-05-08T14:42:25.495Z,1.80
2023-05-08T14:44:58.961Z,1.70
2023-05-08T14:47:39.929Z,1.90
2023-05-08T14:50:07.626Z,2.03
2023-05-08T14:52:37.369Z,1.98
2023-05-08T14:55:12.382Z,1.92
2023-05-08T14:57:42.552Z,1.67
2023-05-08T15:00:09.937Z,1.85
2023-05-08T15:02:36.584Z,1.90
2023-05-08T15:05:08.137Z,2.10
2023-05-08T15:07:38.603Z,1.88
2023-05-08T15:10:06.666Z,1.98
2023-05-08T15:12:33.559Z,1.70
2023-05-08T15:15:01.614Z,1.63
2023-05-08T15:17:30.458Z,1.75
2023-05-08T15:19:57.073Z,2.10
2023-05-08T15:22:23.670Z,1.80
2023-05-08T15:24:50.241Z,2.00
2023-05-08T15:27:16.975Z,1.92
2023-05-08T15:29:43.579Z,1.60
2023-05-08T15:32:10.454Z,1.65
2023-05-08T15:34:38.574Z,2.15
2023-05-08T15:37:06.580Z,1.70
2023-05-08T15:39:35.782Z,1.77
2023-05-08T15:42:02.368Z,1.60
2023-05-08T15:44:42.085Z,1.80
2023-05-08T15:47:15.504Z,1.80
2023-05-08T15:49:42.102Z,2.30
2023-05-08T15:52:08.686Z,1.80
2023-05-08T15:54:35.375Z,1.90
2023-05-08T15:57:01.996Z,2.17
2023-05-08T15:59:28.567Z,2.05
2023-05-08T16:01:55.202Z,2.42
2023-05-08T16:04:21.776Z,1.98
2023-05-08T16:06:48.363Z,2.25
2023-05-08T16:09:14.976Z,2.10
2023-05-08T16:11:42.982Z,2.30
2023-05-08T16:14:09.611Z,2.08
2023-05-08T16:16:39.126Z,1.80
2023-05-08T16:19:05.800Z,2.25
2023-05-08T16:21:32.373Z,1.92
2023-05-08T16:23:59.012Z,1.75
2023-05-08T16:26:26.406Z,2.40
2023-05-08T16:28:53.203Z,1.98
2023-05-08T16:31:19.841Z,2.10
2023-05-08T16:33:46.539Z,2.00
2023-05-08T16:36:13.333Z,2.35
2023-05-08T16:38:39.945Z,2.00
2023-05-08T16:41:09.158Z,2.38
2023-05-08T16:43:35.765Z,2.35
2023-05-08T16:46:02.385Z,1.65
2023-05-08T16:48:30.326Z,2.08
2023-05-08T16:50:57.232Z,2.00
2023-05-08T16:53:23.942Z,1.85
2023-05-08T16:55:50.799Z,2.53
2023-05-08T16:58:24.492Z,2.00
2023-05-08T17:00:51.081Z,1.95
2023-05-08T17:03:17.811Z,2.22
2023-05-08T17:05:44.402Z,2.20
2023-05-08T17:08:11.897Z,1.90
2023-05-08T17:10:39.515Z,1.98
2023-05-08T17:13:06.228Z,2.10
2023-05-08T17:15:32.975Z,2.92
2023-05-08T17:17:59.629Z,2.00
2023-05-08T17:20:26.328Z,2.65
2023-05-08T17:22:54.043Z,2.45
2023-05-08T17:25:22.556Z,2.28
2023-05-08T17:27:49.238Z,2.30
2023-05-08T17:30:17.007Z,2.50
2023-05-08T17:32:43.796Z,2.15
2023-05-08T17:35:10.475Z,2.13
2023-05-08T17:37:37.324Z,2.00
2023-05-08T17:40:04.212Z,2.08
2023-05-08T17:42:30.876Z,2.30
2023-05-08T17:44:57.512Z,2.00
2023-05-08T17:47:24.145Z,2.00
2023-05-08T17:49:50.979Z,2.03
2023-05-08T17:52:17.663Z,2.30
2023-05-08T17:54:44.268Z,2.13
2023-05-08T17:57:10.868Z,2.00
2023-05-08T17:59:37.490Z,2.03
2023-05-08T18:02:04.113Z,2.10
2023-05-08T18:04:30.723Z,1.95
2023-05-08T18:06:57.318Z,2.20
2023-05-08T18:09:23.916Z,1.98
2023-05-08T18:11:50.550Z,1.90
2023-05-08T18:14:17.103Z,2.10
2023-05-08T18:16:43.690Z,2.17
2023-05-08T18:19:10.383Z,2.30
2023-05-08T18:21:37.072Z,2.22
2023-05-08T18:24:04.040Z,2.33
2023-05-08T18:26:30.831Z,1.92
2023-05-08T18:28:57.546Z,2.30
2023-05-08T18:31:24.251Z,2.33
2023-05-08T18:33:50.883Z,2.20
2023-05-08T18:36:17.471Z,2.40
2023-05-08T18:38:44.174Z,2.95
2023-05-08T18:41:10.788Z,2.35
2023-05-08T18:43:37.411Z,2.72
2023-05-08T18:46:12.456Z,3.13
2023-05-08T18:48:42.777Z,3.05
2023-05-08T18:51:10.232Z,2.92
2023-05-08T18:53:38.423Z,2.90
2023-05-08T18:56:05.345Z,3.60
2023-05-08T18:58:32.081Z,3.25
2023-05-08T19:00:58.944Z,2.90
2023-05-08T19:03:26.055Z,3.47
2023-05-08T19:05:54.788Z,2.92
2023-05-08T19:08:21.454Z,2.45
2023-05-08T19:10:48.052Z,2.33
2023-05-08T19:13:14.930Z,2.30
2023-05-08T19:15:41.737Z,2.22
2023-05-08T19:18:09.082Z,2.58
2023-05-08T19:20:36.067Z,2.63
2023-05-08T19:23:02.793Z,2.97
2023-05-08T19:25:29.588Z,2.55
2023-05-08T19:27:57.347Z,3.05
2023-05-08T19:30:24.123Z,2.72
2023-05-08T19:32:50.828Z,3.63
2023-05-08T19:35:17.452Z,2.95
2023-05-08T19:37:44.051Z,2.90
2023-05-08T19:40:11.408Z,3.25
2023-05-08T19:42:38.548Z,3.63
2023-05-08T19:45:05.591Z,3.92
2023-05-08T19:47:32.272Z,3.33
2023-05-08T19:49:58.901Z,3.30
2023-05-08T19:52:25.613Z,3.17
2023-05-08T19:54:52.277Z,3.10
2023-05-08T19:57:19.059Z,2.95
2023-05-08T19:59:45.679Z,2.70
2023-05-08T20:02:12.275Z,2.95
2023-05-08T20:04:54.504Z,2.50
2023-05-08T20:07:26.161Z,2.33
2023-05-08T20:09:52.881Z,2.80
2023-05-08T20:12:19.613Z,2.70
2023-05-08T20:14:46.206Z,2.83
2023-05-08T20:17:12.869Z,2.90
2023-05-08T20:19:39.524Z,2.78
2023-05-08T20:22:06.206Z,3.33
2023-05-08T20:24:32.790Z,3.08
2023-05-08T20:26:59.479Z,2.90
2023-05-08T20:29:26.679Z,2.70
2023-05-08T20:31:53.785Z,2.90
2023-05-08T20:34:21.946Z,3.28
2023-05-08T20:36:48.982Z,2.70
2023-05-08T20:39:15.693Z,3.38
2023-05-08T20:41:42.324Z,2.90
2023-05-08T20:44:08.938Z,3.30
2023-05-08T20:46:35.676Z,3.10
2023-05-08T20:49:04.027Z,3.10
2023-05-08T20:51:31.967Z,3.10
2023-05-08T20:53:58.713Z,3.72
2023-05-08T20:56:25.558Z,3.40
2023-05-08T20:58:52.423Z,3.70
2023-05-08T21:01:20.821Z,4.47
2023-05-08T21:03:48.717Z,4.40
2023-05-08T21:06:15.487Z,4.15
2023-05-08T21:08:42.144Z,3.95
2023-05-08T21:11:09.044Z,4.10
2023-05-08T21:13:35.667Z,3.60
2023-05-08T21:16:02.270Z,3.92
2023-05-08T21:18:28.899Z,3.60
2023-05-08T21:20:55.600Z,3.72
2023-05-08T21:23:22.408Z,3.25
2023-05-08T21:25:49.918Z,3.97
2023-05-08T21:28:17.017Z,3.97
2023-05-08T21:30:44.327Z,3.70
2023-05-08T21:33:13.725Z,4.13
2023-05-08T21:35:43.820Z,4.35
2023-05-08T21:38:12.189Z,4.70
2023-05-08T21:40:39.353Z,5.10
2023-05-08T21:43:06.047Z,4.80
2023-05-08T21:45:33.334Z,4.25
2023-05-08T21:48:00.532Z,4.40
2023-05-08T21:50:28.490Z,4.30
2023-05-08T21:52:56.561Z,4.10
2023-05-08T21:55:23.424Z,3.42
2023-05-08T21:57:50.077Z,3.78
2023-05-08T22:00:17.085Z,4.20
2023-05-08T22:02:43.732Z,3.78
2023-05-08T22:05:10.628Z,3.88
2023-05-08T22:07:37.369Z,3.97
2023-05-08T22:10:04.358Z,4.30
2023-05-08T22:12:30.944Z,3.83
2023-05-08T22:14:57.613Z,4.60
2023-05-08T22:17:24.177Z,3.60
2023-05-08T22:19:50.825Z,3.95
2023-05-08T22:22:17.544Z,3.70
2023-05-08T22:24:44.175Z,3.58
2023-05-08T22:27:10.908Z,4.07
2023-05-08T22:29:37.472Z,4.13
2023-05-08T22:32:04.292Z,3.92
2023-05-08T22:34:31.024Z,4.22
2023-05-08T22:36:57.606Z,4.10
2023-05-08T22:39:24.172Z,4.18
2023-05-08T22:41:50.789Z,4.05
2023-05-08T22:44:17.437Z,4.30
2023-05-08T22:46:44.228Z,4.53
2023-05-08T22:49:11.116Z,4.25
2023-05-08T22:51:39.057Z,4.10
2023-05-08T22:54:05.806Z,4.20
2023-05-08T22:56:32.425Z,3.85
2023-05-08T22:58:59.158Z,4.40
2023-05-08T23:01:25.802Z,4.53
2023-05-08T23:03:53.819Z,4.45
2023-05-08T23:06:20.707Z,4.50
2023-05-08T23:08:47.344Z,4.55
2023-05-08T23:11:14.160Z,4.43
2023-05-08T23:13:40.746Z,4.13
2023-05-08T23:16:07.479Z,3.97
2023-05-08T23:18:34.566Z,4.10
2023-05-08T23:21:06.329Z,4.20
2023-05-08T23:23:33.093Z,4.25
2023-05-08T23:26:01.158Z,4.70
2023-05-08T23:28:27.871Z,4.38
2023-05-08T23:30:54.452Z,4.70
2023-05-08T23:33:21.009Z,4.32
2023-05-08T23:35:47.616Z,4.25
2023-05-08T23:38:14.223Z,4.45
2023-05-08T23:40:40.773Z,4.72
2023-05-08T23:43:07.328Z,4.50
2023-05-08T23:45:33.906Z,4.30
2023-05-08T23:48:00.567Z,4.28
2023-05-08T23:50:27.151Z,4.53
2023-05-08T23:52:53.764Z,4.65
2023-05-08T23:55:20.434Z,4.50
2023-05-08T23:57:47.238Z,4.68
